createdAt,value
2022-09-01T00:01:24.328Z,24.70
2022-09-01T00:03:53.014Z,24.60
2022-09-01T00:06:22.805Z,24.72
2022-09-01T00:08:50.657Z,24.47
2022-09-01T00:11:18.753Z,24.40
2022-09-01T00:13:46.001Z,24.11
2022-09-01T00:16:15.298Z,24.03
2022-09-01T00:18:43.772Z,24.16
2022-09-01T00:21:11.196Z,24.10
2022-09-01T00:23:38.494Z,24.05
2022-09-01T00:26:06.076Z,24.09
2022-09-01T00:28:33.937Z,23.65
2022-09-01T00:31:01.681Z,23.92
2022-09-01T00:33:29.340Z,23.92
2022-09-01T00:35:56.738Z,23.57
2022-09-01T00:38:24.158Z,23.02
2022-09-01T00:40:51.807Z,23.35
2022-09-01T00:43:23.437Z,23.53
2022-09-01T00:45:51.980Z,23.55
2022-09-01T00:48:21.822Z,23.44
2022-09-01T00:50:49.528Z,23.63
2022-09-01T00:53:20.122Z,23.62
2022-09-01T00:55:47.402Z,23.66
2022-09-01T00:58:18.327Z,23.71
2022-09-01T01:00:47.500Z,23.71
2022-09-01T01:03:14.805Z,23.54
2022-09-01T01:05:54.364Z,23.43
2022-09-01T01:08:27.684Z,23.64
2022-09-01T01:10:55.083Z,23.59
2022-09-01T01:13:26.068Z,23.60
2022-09-01T01:15:53.398Z,23.41
2022-09-01T01:18:22.995Z,23.35
2022-09-01T01:21:16.474Z,22.94
2022-09-01T01:23:45.890Z,23.12
2022-09-01T01:26:13.595Z,23.13
2022-09-01T01:28:41.633Z,23.20
2022-09-01T01:31:13.703Z,23.19
2022-09-01T01:33:46.549Z,23.01
2022-09-01T01:36:16.077Z,23.21
2022-09-01T01:38:47.610Z,23.04
2022-09-01T01:41:16.417Z,23.20
2022-09-01T01:43:44.060Z,23.31
2022-09-01T01:46:12.249Z,23.33
2022-09-01T01:48:41.631Z,23.24
2022-09-01T01:51:10.577Z,22.98
2022-09-01T01:53:38.033Z,23.07
2022-09-01T01:56:06.259Z,22.90
2022-09-01T01:58:35.963Z,22.86
2022-09-01T02:01:07.102Z,22.69
2022-09-01T02:03:38.799Z,22.65
2022-09-01T02:06:08.218Z,22.64
2022-09-01T02:08:36.628Z,22.83
2022-09-01T02:11:05.196Z,22.69
2022-09-01T02:13:32.617Z,22.63
2022-09-01T02:16:01.668Z,22.76
2022-09-01T02:21:01.575Z,22.25
2022-09-01T02:23:29.997Z,22.68
2022-09-01T02:26:15.578Z,22.87
2022-09-01T02:28:45.459Z,23.02
2022-09-01T02:31:12.927Z,22.93
2022-09-01T02:33:40.724Z,22.84
2022-09-01T02:36:10.252Z,22.58
2022-09-01T02:38:38.848Z,22.71
2022-09-01T02:41:06.985Z,22.84
2022-09-01T02:43:34.532Z,22.97
2022-09-01T02:46:02.069Z,22.98
2022-09-01T02:48:32.957Z,23.16
2022-09-01T02:51:02.056Z,23.15
2022-09-01T02:53:29.823Z,22.96
2022-09-01T02:56:00.664Z,22.93
2022-09-01T02:58:29.101Z,22.73
2022-09-01T03:00:57.084Z,22.67
2022-09-01T03:03:24.825Z,22.25
2022-09-01T03:05:56.312Z,22.57
2022-09-01T03:08:24.473Z,22.45
2022-09-01T03:10:53.917Z,22.54
2022-09-01T03:13:22.407Z,22.70
2022-09-01T03:15:51.142Z,22.51
2022-09-01T03:18:18.830Z,22.60
2022-09-01T03:20:46.674Z,22.66
2022-09-01T03:23:14.995Z,22.63
2022-09-01T03:25:47.843Z,22.62
2022-09-01T03:28:15.736Z,22.72
2022-09-01T03:30:50.425Z,22.56
2022-09-01T03:33:18.727Z,22.75
2022-09-01T03:35:46.512Z,22.52
2022-09-01T03:38:20.736Z,22.16
2022-09-01T03:40:49.430Z,22.35
2022-09-01T03:43:17.976Z,21.62
2022-09-01T03:45:46.236Z,21.90
2022-09-01T03:48:16.331Z,21.68
2022-09-01T03:50:47.578Z,22.64
2022-09-01T03:53:17.068Z,22.79
2022-09-01T03:55:45.237Z,22.62
2022-09-01T03:58:14.586Z,22.95
2022-09-01T04:00:48.679Z,23.01
2022-09-01T04:03:28.509Z,23.14
2022-09-01T04:05:56.662Z,22.56
2022-09-01T04:08:27.563Z,22.60
2022-09-01T04:11:02.764Z,22.33
2022-09-01T04:15:57.986Z,22.27
2022-09-01T04:18:25.681Z,22.28
2022-09-01T04:20:54.274Z,22.43
2022-09-01T04:23:33.540Z,22.70
2022-09-01T04:26:08.999Z,22.78
2022-09-01T04:28:40.333Z,22.60
2022-09-01T04:31:09.278Z,22.75
2022-09-01T04:33:38.159Z,22.55
2022-09-01T04:36:07.022Z,23.01
2022-09-01T04:38:37.164Z,22.90
2022-09-01T04:41:07.641Z,22.99
2022-09-01T04:43:35.289Z,22.97
2022-09-01T04:46:03.354Z,22.98
2022-09-01T04:48:31.720Z,23.00
2022-09-01T04:50:59.487Z,22.93
2022-09-01T04:53:28.454Z,22.68
2022-09-01T04:55:56.013Z,22.83
2022-09-01T04:58:24.640Z,22.95
2022-09-01T05:00:52.341Z,23.01
2022-09-01T05:03:24.113Z,23.02
2022-09-01T05:05:54.136Z,23.00
2022-09-01T05:08:24.445Z,23.05
2022-09-01T05:10:55.725Z,23.04
2022-09-01T05:13:24.428Z,22.91
2022-09-01T05:16:02.710Z,22.97
2022-09-01T05:18:30.366Z,22.39
2022-09-01T05:20:58.087Z,22.65
2022-09-01T05:23:26.715Z,22.74
2022-09-01T05:25:55.005Z,22.82
2022-09-01T05:28:25.403Z,22.33
2022-09-01T05:30:55.656Z,22.63
2022-09-01T05:33:23.455Z,22.94
2022-09-01T05:35:55.627Z,22.90
2022-09-01T05:38:24.260Z,23.01
2022-09-01T05:40:59.173Z,22.42
2022-09-01T05:43:27.902Z,22.64
2022-09-01T05:46:06.688Z,22.93
2022-09-01T05:48:39.894Z,22.80
2022-09-01T05:51:22.279Z,22.87
2022-09-01T05:53:59.331Z,22.93
2022-09-01T05:56:28.037Z,22.73
2022-09-01T06:01:48.129Z,22.41
2022-09-01T06:04:17.862Z,22.07
2022-09-01T06:07:06.874Z,22.10
2022-09-01T06:09:38.749Z,22.39
2022-09-01T06:12:06.726Z,22.07
2022-09-01T06:14:34.653Z,22.59
2022-09-01T06:17:03.332Z,22.45
2022-09-01T06:19:36.875Z,22.46
2022-09-01T06:22:05.011Z,22.39
2022-09-01T06:24:32.581Z,22.56
2022-09-01T06:26:59.930Z,22.72
2022-09-01T06:29:27.552Z,22.55
2022-09-01T06:31:54.991Z,22.34
2022-09-01T06:34:22.426Z,22.19
2022-09-01T06:36:51.804Z,22.56
2022-09-01T06:39:22.073Z,22.60
2022-09-01T06:41:52.971Z,22.71
2022-09-01T06:44:23.144Z,22.75
2022-09-01T06:46:53.119Z,22.81
2022-09-01T06:49:21.570Z,22.61
2022-09-01T06:51:52.840Z,22.69
2022-09-01T06:54:23.120Z,22.62
2022-09-01T06:56:51.788Z,22.69
2022-09-01T06:59:38.632Z,22.48
2022-09-01T07:02:06.691Z,22.73
2022-09-01T07:04:43.227Z,22.84
2022-09-01T07:10:18.680Z,22.64
2022-09-01T07:13:05.756Z,22.52
2022-09-01T07:18:25.264Z,22.47
2022-09-01T07:21:36.347Z,22.91
2022-09-01T07:24:07.923Z,22.71
2022-09-01T07:26:33.941Z,22.72
2022-09-01T07:29:04.218Z,22.76
2022-09-01T07:32:44.057Z,22.52
2022-09-01T07:34:41.940Z,22.37
2022-09-01T07:45:34.857Z,22.35
2022-09-01T07:48:03.491Z,22.13
2022-09-01T07:51:35.097Z,22.35
2022-09-01T07:53:31.587Z,22.32
2022-09-01T07:56:00.116Z,22.51
2022-09-01T07:58:28.438Z,22.89
2022-09-01T08:00:57.463Z,22.31
2022-09-01T08:03:25.268Z,22.32
2022-09-01T08:05:57.727Z,22.56
2022-09-01T08:08:29.010Z,22.48
2022-09-01T08:11:04.377Z,22.71
2022-09-01T08:13:41.178Z,22.78
2022-09-01T08:16:16.809Z,22.52
2022-09-01T08:18:48.565Z,22.85
2022-09-01T08:21:22.261Z,22.50
2022-09-01T08:23:54.360Z,22.67
2022-09-01T08:26:22.992Z,22.65
2022-09-01T08:28:54.913Z,22.65
2022-09-01T08:31:25.199Z,22.48
2022-09-01T08:33:53.677Z,22.51
2022-09-01T08:36:23.968Z,22.66
2022-09-01T08:38:53.455Z,22.84
2022-09-01T08:41:39.837Z,22.82
2022-09-01T08:44:32.476Z,22.91
2022-09-01T08:47:02.119Z,22.77
2022-09-01T08:49:30.336Z,22.86
2022-09-01T08:52:18.238Z,22.76
2022-09-01T08:54:47.474Z,22.88
2022-09-01T08:57:20.098Z,22.85
2022-09-01T08:59:49.945Z,23.08
2022-09-01T09:02:23.710Z,22.89
2022-09-01T09:04:57.483Z,23.12
2022-09-01T09:07:36.892Z,23.11
2022-09-01T09:10:27.637Z,22.87
2022-09-01T09:12:55.727Z,23.04
2022-09-01T09:15:37.355Z,23.04
2022-09-01T09:18:19.912Z,23.14
2022-09-01T09:20:51.570Z,23.31
2022-09-01T09:23:23.995Z,23.14
2022-09-01T09:25:52.114Z,23.40
2022-09-01T09:28:19.386Z,23.51
2022-09-01T09:30:47.140Z,23.34
2022-09-01T09:33:53.596Z,23.31
2022-09-01T09:36:25.464Z,23.37
2022-09-01T09:39:07.169Z,23.53
2022-09-01T09:41:36.028Z,23.32
2022-09-01T09:44:08.495Z,23.66
2022-09-01T09:46:39.476Z,23.76
2022-09-01T09:49:11.665Z,23.89
2022-09-01T09:51:40.646Z,23.79
2022-09-01T09:54:13.415Z,23.78
2022-09-01T09:56:46.987Z,23.76
2022-09-01T09:59:39.484Z,23.70
2022-09-01T10:02:20.813Z,23.87
2022-09-01T10:04:55.611Z,23.47
2022-09-01T10:07:31.175Z,23.34
2022-09-01T10:10:01.782Z,23.60
2022-09-01T10:12:29.444Z,23.93
2022-09-01T10:14:58.921Z,23.57
2022-09-01T10:17:35.902Z,23.37
2022-09-01T10:20:14.741Z,23.44
2022-09-01T10:22:42.281Z,23.58
2022-09-01T10:25:14.261Z,23.50
2022-09-01T10:27:42.286Z,23.43
2022-09-01T10:30:18.694Z,23.15
2022-09-01T10:32:55.786Z,22.83
2022-09-01T10:35:28.599Z,23.76
2022-09-01T10:37:58.003Z,23.30
2022-09-01T10:40:31.599Z,23.87
2022-09-01T10:43:00.967Z,22.89
2022-09-01T10:45:38.788Z,23.41
2022-09-01T10:48:48.549Z,23.56
2022-09-01T10:51:19.476Z,23.58
2022-09-01T10:53:49.317Z,23.80
2022-09-01T10:56:28.509Z,23.74
2022-09-01T11:02:22.245Z,23.66
2022-09-01T11:04:41.329Z,23.43
2022-09-01T11:07:26.850Z,23.61
2022-09-01T11:10:11.391Z,23.01
2022-09-01T11:12:57.953Z,23.87
2022-09-01T11:15:39.301Z,23.66
2022-09-01T11:18:17.498Z,24.31
2022-09-01T11:20:46.671Z,24.21
2022-09-01T11:23:28.052Z,24.59
2022-09-01T11:26:20.637Z,23.96
2022-09-01T11:28:48.138Z,24.01
2022-09-01T11:31:18.742Z,24.49
2022-09-01T11:33:47.697Z,24.89
2022-09-01T11:36:22.170Z,24.56
2022-09-01T11:38:51.529Z,24.50
2022-09-01T11:41:33.913Z,24.61
2022-09-01T11:44:02.962Z,24.15
2022-09-01T11:46:34.908Z,24.17
2022-09-01T11:49:10.771Z,24.31
2022-09-01T11:51:39.499Z,23.97
2022-09-01T11:54:07.114Z,24.22
2022-09-01T11:56:34.370Z,23.92
2022-09-01T11:59:01.680Z,23.89
2022-09-01T12:01:36.517Z,24.52
2022-09-01T12:04:20.146Z,24.01
2022-09-01T12:06:51.764Z,23.79
2022-09-01T12:09:19.344Z,24.30
2022-09-01T12:11:46.574Z,24.47
2022-09-01T12:14:19.249Z,24.68
2022-09-01T12:16:48.602Z,24.15
2022-09-01T12:19:23.020Z,24.56
2022-09-01T12:21:56.977Z,24.20
2022-09-01T12:24:24.670Z,24.26
2022-09-01T12:26:54.670Z,24.15
2022-09-01T12:29:23.201Z,23.67
2022-09-01T12:31:52.512Z,23.76
2022-09-01T12:34:38.942Z,23.83
2022-09-01T12:37:09.366Z,24.16
2022-09-01T12:39:36.997Z,24.21
2022-09-01T12:42:08.924Z,24.41
2022-09-01T12:44:39.713Z,24.39
2022-09-01T12:47:08.387Z,24.78
2022-09-01T12:49:37.953Z,24.08
2022-09-01T12:52:27.768Z,24.14
2022-09-01T12:54:58.363Z,24.44
2022-09-01T12:57:33.827Z,24.37
2022-09-01T13:00:19.853Z,24.33
2022-09-01T13:02:49.391Z,24.63
2022-09-01T13:05:20.786Z,25.01
2022-09-01T13:07:48.500Z,25.04
2022-09-01T13:10:15.880Z,24.72
2022-09-01T13:12:43.825Z,25.26
2022-09-01T13:17:41.868Z,26.03
2022-09-01T13:20:09.375Z,25.77
2022-09-01T13:22:38.215Z,25.33
2022-09-01T13:25:05.741Z,25.18
2022-09-01T13:27:33.106Z,24.79
2022-09-01T13:30:00.701Z,25.25
2022-09-01T13:32:28.100Z,25.18
2022-09-01T13:34:55.496Z,24.53
2022-09-01T13:37:23.627Z,24.80
2022-09-01T13:39:51.017Z,25.02
2022-09-01T13:42:18.443Z,25.19
2022-09-01T13:44:49.660Z,24.66
2022-09-01T13:47:33.991Z,25.29
2022-09-01T13:50:11.458Z,24.75
2022-09-01T13:52:40.162Z,25.84
2022-09-01T13:55:08.395Z,25.70
2022-09-01T13:57:49.036Z,25.72
2022-09-01T14:00:19.218Z,25.59
2022-09-01T14:02:50.324Z,26.08
2022-09-01T14:05:18.836Z,25.89
2022-09-01T14:07:46.154Z,25.79
2022-09-01T14:10:14.411Z,25.81
2022-09-01T14:12:41.957Z,26.47
2022-09-01T14:15:12.351Z,25.91
2022-09-01T14:17:42.199Z,26.24
2022-09-01T14:20:12.824Z,25.79
2022-09-01T14:22:43.080Z,25.96
2022-09-01T14:25:10.886Z,25.49
2022-09-01T14:27:38.449Z,25.47
2022-09-01T14:30:06.573Z,25.54
2022-09-01T14:32:34.426Z,25.81
2022-09-01T14:35:02.063Z,25.96
2022-09-01T14:37:29.609Z,25.46
2022-09-01T14:39:57.617Z,25.42
2022-09-01T14:42:29.137Z,25.64
2022-09-01T14:44:56.690Z,25.41
2022-09-01T14:47:25.582Z,25.21
2022-09-01T14:49:53.410Z,25.05
2022-09-01T14:52:22.104Z,25.12
2022-09-01T14:54:49.628Z,24.83
2022-09-01T14:57:37.761Z,24.64
2022-09-01T15:00:05.851Z,25.07
2022-09-01T15:02:33.392Z,25.02
2022-09-01T15:05:01.382Z,25.37
2022-09-01T15:07:29.006Z,24.99
2022-09-01T15:09:58.749Z,25.13
2022-09-01T15:12:30.966Z,25.39
2022-09-01T15:15:01.400Z,25.35
2022-09-01T15:17:29.022Z,25.50
2022-09-01T15:19:56.276Z,25.09
2022-09-01T15:22:23.869Z,25.42
2022-09-01T15:24:51.452Z,25.24
2022-09-01T15:27:19.017Z,25.61
2022-09-01T15:29:49.015Z,25.83
2022-09-01T15:32:27.409Z,25.43
2022-09-01T15:34:55.975Z,25.97
2022-09-01T15:37:23.305Z,25.86
2022-09-01T15:39:50.579Z,25.59
2022-09-01T15:42:18.552Z,25.63
2022-09-01T15:44:47.391Z,25.42
2022-09-01T15:47:14.693Z,25.45
2022-09-01T15:49:42.332Z,25.27
2022-09-01T15:52:11.061Z,25.84
2022-09-01T15:54:38.530Z,25.37
2022-09-01T15:57:06.326Z,25.89
2022-09-01T15:59:40.072Z,26.05
2022-09-01T16:02:07.789Z,25.96
2022-09-01T16:04:35.528Z,26.04
2022-09-01T16:07:02.855Z,26.17
2022-09-01T16:09:30.871Z,25.67
2022-09-01T16:11:59.868Z,25.54
2022-09-01T16:14:28.469Z,25.23
2022-09-01T16:16:58.362Z,24.94
2022-09-01T16:19:29.077Z,25.14
2022-09-01T16:22:14.035Z,25.52
2022-09-01T16:24:43.580Z,25.68
2022-09-01T16:27:12.874Z,25.74
2022-09-01T16:29:45.235Z,25.78
2022-09-01T16:32:13.066Z,25.63
2022-09-01T16:34:49.834Z,25.71
2022-09-01T16:37:18.171Z,25.87
2022-09-01T16:39:54.719Z,25.72
2022-09-01T16:43:01.065Z,25.78
2022-09-01T16:45:36.152Z,25.72
2022-09-01T16:48:11.622Z,25.88
2022-09-01T16:50:38.873Z,25.94
2022-09-01T16:53:18.875Z,25.96
2022-09-01T16:56:22.750Z,25.82
2022-09-01T16:59:08.916Z,25.99
2022-09-01T17:01:40.174Z,25.93
2022-09-01T17:04:11.958Z,25.90
2022-09-01T17:06:57.906Z,25.77
2022-09-01T17:09:33.783Z,25.99
2022-09-01T17:12:23.239Z,26.01
2022-09-01T17:15:03.175Z,26.06
2022-09-01T17:17:35.854Z,25.99
2022-09-01T17:20:04.705Z,26.05
2022-09-01T17:22:32.163Z,25.71
2022-09-01T17:27:51.080Z,25.84
2022-09-01T17:30:18.637Z,25.77
2022-09-01T17:33:18.498Z,25.79
2022-09-01T17:35:50.232Z,25.77
2022-09-01T17:38:29.999Z,25.73
2022-09-01T17:41:05.459Z,25.67
2022-09-01T17:43:36.103Z,25.57
2022-09-01T17:46:04.509Z,25.55
2022-09-01T17:48:40.051Z,25.32
2022-09-01T17:51:28.149Z,25.26
2022-09-01T17:54:01.714Z,25.01
2022-09-01T17:56:32.768Z,24.95
2022-09-01T17:59:18.435Z,24.79
2022-09-01T18:02:04.994Z,24.80
2022-09-01T18:04:39.666Z,24.80
2022-09-01T18:07:25.825Z,24.71
2022-09-01T18:09:56.311Z,24.90
2022-09-01T18:12:35.705Z,24.75
2022-09-01T18:15:10.126Z,24.74
2022-09-01T18:17:41.921Z,24.77
2022-09-01T18:20:11.045Z,24.77
2022-09-01T18:22:40.097Z,24.63
2022-09-01T18:25:08.150Z,24.50
2022-09-01T18:27:36.841Z,24.53
2022-09-01T18:30:04.857Z,24.50
2022-09-01T18:32:33.614Z,24.53
2022-09-01T18:35:11.851Z,24.52
2022-09-01T18:37:42.457Z,24.30
2022-09-01T18:40:16.644Z,23.94
2022-09-01T18:42:54.301Z,24.10
2022-09-01T18:45:40.609Z,24.08
2022-09-01T18:48:08.108Z,24.07
2022-09-01T18:50:51.397Z,24.10
2022-09-01T18:53:28.081Z,24.00
2022-09-01T18:56:16.983Z,23.99
2022-09-01T18:58:44.464Z,23.88
2022-09-01T19:01:16.878Z,23.55
2022-09-01T19:03:46.779Z,23.69
2022-09-01T19:06:14.538Z,23.54
2022-09-01T19:09:00.834Z,23.41
2022-09-01T19:11:58.435Z,23.44
2022-09-01T19:14:29.347Z,23.28
2022-09-01T19:17:03.468Z,23.39
2022-09-01T19:19:37.922Z,23.45
2022-09-01T19:22:05.939Z,23.53
2022-09-01T19:24:36.227Z,23.46
2022-09-01T19:27:10.091Z,23.48
2022-09-01T19:29:42.075Z,23.34
2022-09-01T19:32:12.026Z,23.36
2022-09-01T19:34:41.133Z,23.24
2022-09-01T19:37:08.493Z,23.36
2022-09-01T19:39:37.355Z,23.35
2022-09-01T19:42:25.868Z,23.43
2022-09-01T19:45:11.741Z,23.45
2022-09-01T19:47:41.302Z,23.42
2022-09-01T19:50:21.342Z,23.37
2022-09-01T19:52:49.867Z,23.19
2022-09-01T19:55:19.573Z,23.27
2022-09-01T19:57:50.398Z,23.28
2022-09-01T20:00:36.232Z,23.21
2022-09-01T20:03:08.053Z,23.04
2022-09-01T20:05:36.226Z,22.93
2022-09-01T20:08:16.450Z,23.00
2022-09-01T20:10:56.438Z,22.99
2022-09-01T20:13:33.703Z,22.98
2022-09-01T20:16:19.805Z,22.91
2022-09-01T20:18:53.434Z,22.74
2022-09-01T20:21:21.458Z,22.64
2022-09-01T20:24:18.904Z,22.66
2022-09-01T20:26:49.829Z,22.61
2022-09-01T20:29:17.312Z,22.62
2022-09-01T20:31:46.315Z,22.37
2022-09-01T20:34:15.809Z,22.55
2022-09-01T20:36:48.961Z,22.69
2022-09-01T20:39:40.127Z,22.69
2022-09-01T20:42:07.764Z,22.75
2022-09-01T20:44:53.157Z,22.76
2022-09-01T20:47:21.526Z,22.69
2022-09-01T20:49:49.322Z,22.60
2022-09-01T20:52:20.942Z,22.50
2022-09-01T20:54:51.545Z,22.44
2022-09-01T20:57:21.941Z,22.62
2022-09-01T20:59:51.425Z,22.31
2022-09-01T21:02:18.758Z,22.46
2022-09-01T21:04:52.244Z,22.50
2022-09-01T21:09:46.727Z,22.44
2022-09-01T21:12:32.766Z,22.49
2022-09-01T21:15:06.844Z,22.37
2022-09-01T21:17:44.217Z,22.38
2022-09-01T21:20:11.732Z,22.41
2022-09-01T21:22:39.010Z,22.42
2022-09-01T21:25:06.463Z,22.45
2022-09-01T21:27:40.360Z,22.45
2022-09-01T21:30:09.492Z,22.30
2022-09-01T21:32:37.345Z,22.19
2022-09-01T21:35:05.511Z,22.35
2022-09-01T21:37:32.796Z,22.41
2022-09-01T21:40:00.364Z,22.37
2022-09-01T21:42:35.005Z,22.29
2022-09-01T21:45:03.785Z,22.18
2022-09-01T21:47:31.441Z,22.21
2022-09-01T21:49:58.777Z,22.44
2022-09-01T21:52:26.380Z,22.41
2022-09-01T21:54:53.894Z,21.42
2022-09-01T21:57:23.070Z,21.83
2022-09-01T21:59:51.443Z,21.59
2022-09-01T22:02:20.136Z,22.18
2022-09-01T22:04:48.912Z,22.44
2022-09-01T22:07:17.071Z,21.37
2022-09-01T22:09:45.117Z,22.03
2022-09-01T22:12:13.279Z,22.27
2022-09-01T22:14:40.520Z,22.49
2022-09-01T22:17:08.054Z,22.21
2022-09-01T22:19:35.811Z,22.36
2022-09-01T22:22:03.458Z,22.53
2022-09-01T22:24:30.729Z,22.41
2022-09-01T22:26:58.238Z,22.61
2022-09-01T22:29:25.559Z,22.59
2022-09-01T22:31:52.956Z,22.59
2022-09-01T22:36:48.385Z,22.50
2022-09-01T22:39:16.047Z,22.49
2022-09-01T22:41:43.573Z,22.70
2022-09-01T22:44:11.086Z,22.65
2022-09-01T22:46:39.292Z,22.10
2022-09-01T22:49:06.824Z,22.43
2022-09-01T22:51:34.244Z,22.32
2022-09-01T22:54:01.619Z,22.31
2022-09-01T22:56:31.304Z,22.44
2022-09-01T22:59:04.168Z,22.51
2022-09-01T23:01:33.686Z,22.32
2022-09-01T23:04:01.819Z,22.51
2022-09-01T23:06:29.552Z,22.29
2022-09-01T23:08:58.377Z,22.21
2022-09-01T23:11:25.886Z,22.21
2022-09-01T23:13:53.397Z,21.49
2022-09-01T23:16:21.621Z,21.42
2022-09-01T23:18:49.257Z,21.48
2022-09-01T23:21:18.089Z,21.89
2022-09-01T23:23:45.630Z,21.90
2022-09-01T23:26:13.662Z,21.99
2022-09-01T23:28:42.041Z,21.52
2022-09-01T23:31:10.482Z,21.61
2022-09-01T23:33:37.763Z,21.97
2022-09-01T23:36:06.031Z,21.73
2022-09-01T23:38:33.549Z,21.93
2022-09-01T23:41:04.149Z,21.28
2022-09-01T23:43:31.386Z,21.97
2022-09-01T23:45:58.969Z,21.27
2022-09-01T23:48:26.252Z,21.54
2022-09-01T23:50:57.576Z,21.85
2022-09-01T23:53:26.822Z,21.70
2022-09-01T23:55:55.017Z,21.89
2022-09-01T23:58:22.729Z,21.56
